createdAt,value
2023-03-10T00:00:23.143Z,-0.85
2023-03-10T00:03:11.110Z,-0.86
2023-03-10T00:05:39.118Z,-0.96
2023-03-10T00:08:07.240Z,-0.96
2023-03-10T00:10:34.517Z,-0.98
2023-03-10T00:13:02.004Z,-1.05
2023-03-10T00:15:29.186Z,-1.13
2023-03-10T00:17:56.778Z,-1.21
2023-03-10T00:20:24.225Z,-1.09
2023-03-10T00:22:51.650Z,-1.13
2023-03-10T00:25:19.570Z,-1.16
2023-03-10T00:27:46.999Z,-1.09
2023-03-10T00:30:15.211Z,-1.08
2023-03-10T00:32:42.849Z,-1.14
2023-03-10T00:35:09.999Z,-1.16
2023-03-10T00:37:38.393Z,-1.12
2023-03-10T00:40:10.221Z,-1.10
2023-03-10T00:42:37.872Z,-1.02
2023-03-10T00:45:05.537Z,-1.05
2023-03-10T00:47:33.566Z,-1.09
2023-03-10T00:50:00.884Z,-1.05
2023-03-10T00:52:33.086Z,-1.00
2023-03-10T00:55:00.351Z,-1.05
2023-03-10T00:57:27.839Z,-1.09
2023-03-10T00:59:55.263Z,-1.03
2023-03-10T01:02:22.875Z,-1.02
2023-03-10T01:04:50.561Z,-1.00
2023-03-10T01:07:18.310Z,-1.01
2023-03-10T01:09:45.435Z,-0.98
2023-03-10T01:12:12.943Z,-0.96
2023-03-10T01:14:40.123Z,-0.98
2023-03-10T01:17:08.960Z,-0.96
2023-03-10T01:19:36.202Z,-0.92
2023-03-10T01:22:03.715Z,-0.97
2023-03-10T01:24:31.365Z,-1.01
2023-03-10T01:26:58.967Z,-1.01
2023-03-10T01:29:27.073Z,-0.97
2023-03-10T01:31:56.634Z,-1.03
2023-03-10T01:34:23.806Z,-1.03
2023-03-10T01:36:51.521Z,-1.05
2023-03-10T01:39:18.697Z,-1.03
2023-03-10T01:41:46.104Z,-0.99
2023-03-10T01:44:20.158Z,-1.06
2023-03-10T01:46:56.066Z,-1.06
2023-03-10T01:49:45.187Z,-1.13
2023-03-10T01:52:18.842Z,-1.14
2023-03-10T01:54:50.999Z,-1.15
2023-03-10T01:57:23.939Z,-1.09
2023-03-10T01:59:52.476Z,-1.20
2023-03-10T02:02:22.056Z,-1.17
2023-03-10T02:04:51.879Z,-1.18
2023-03-10T02:07:26.256Z,-1.26
2023-03-10T02:09:54.804Z,-1.23
2023-03-10T02:12:22.248Z,-1.23
2023-03-10T02:14:50.093Z,-1.26
2023-03-10T02:17:19.015Z,-1.27
2023-03-10T02:20:04.500Z,-1.21
2023-03-10T02:22:33.199Z,-1.28
2023-03-10T02:25:25.716Z,-1.16
2023-03-10T02:27:53.386Z,-1.13
2023-03-10T02:30:24.135Z,-1.16
2023-03-10T02:32:59.384Z,-1.16
2023-03-10T02:35:27.705Z,-1.19
2023-03-10T02:38:00.321Z,-1.17
2023-03-10T02:40:37.628Z,-1.17
2023-03-10T02:43:34.425Z,-1.19
2023-03-10T02:46:12.314Z,-1.18
2023-03-10T02:48:42.973Z,-1.20
2023-03-10T02:51:24.024Z,-1.17
2023-03-10T02:53:52.730Z,-1.11
2023-03-10T02:56:20.386Z,-1.13
2023-03-10T02:58:50.035Z,-1.13
2023-03-10T03:01:17.410Z,-1.12
2023-03-10T03:03:44.973Z,-1.17
2023-03-10T03:06:13.270Z,-1.18
2023-03-10T03:08:41.559Z,-1.17
2023-03-10T03:11:12.150Z,-1.19
2023-03-10T03:13:39.771Z,-1.14
2023-03-10T03:16:08.984Z,-1.17
2023-03-10T03:18:37.425Z,-1.14
2023-03-10T03:21:07.179Z,-1.14
2023-03-10T03:23:36.014Z,-1.15
2023-03-10T03:26:03.336Z,-1.13
2023-03-10T03:28:31.121Z,-1.16
2023-03-10T03:30:58.299Z,-1.13
2023-03-10T03:33:26.056Z,-1.07
2023-03-10T03:35:53.429Z,-1.13
2023-03-10T03:38:20.945Z,-1.13
2023-03-10T03:40:50.196Z,-1.10
2023-03-10T03:43:21.315Z,-1.11
2023-03-10T03:45:49.018Z,-1.12
2023-03-10T03:48:16.938Z,-1.09
2023-03-10T03:50:44.497Z,-1.07
2023-03-10T03:53:22.962Z,-1.13
2023-03-10T03:55:51.404Z,-1.09
2023-03-10T03:58:21.631Z,-1.02
2023-03-10T04:00:51.755Z,-1.06
2023-03-10T04:03:20.234Z,-1.09
2023-03-10T04:05:48.611Z,-1.00
2023-03-10T04:08:16.328Z,-1.07
2023-03-10T04:10:43.489Z,-1.01
2023-03-10T04:13:10.988Z,-0.96
2023-03-10T04:15:38.673Z,-0.96
2023-03-10T04:18:07.054Z,-0.96
2023-03-10T04:20:34.259Z,-0.97
2023-03-10T04:23:02.208Z,-1.00
2023-03-10T04:25:33.258Z,-0.96
2023-03-10T04:28:01.812Z,-0.96
2023-03-10T04:30:30.007Z,-0.96
2023-03-10T04:33:01.567Z,-0.99
2023-03-10T04:35:31.556Z,-0.97
2023-03-10T04:38:00.145Z,-1.01
2023-03-10T04:40:27.703Z,-0.99
2023-03-10T04:42:55.243Z,-0.93
2023-03-10T04:45:22.679Z,-0.98
2023-03-10T04:47:50.248Z,-0.87
2023-03-10T04:50:17.796Z,-0.86
2023-03-10T04:52:47.685Z,-0.87
2023-03-10T04:55:15.089Z,-0.87
2023-03-10T04:57:43.277Z,-0.83
2023-03-10T05:00:12.875Z,-0.86
2023-03-10T05:02:41.696Z,-0.83
2023-03-10T05:05:10.561Z,-0.85
2023-03-10T05:07:40.977Z,-0.86
2023-03-10T05:10:09.407Z,-0.84
2023-03-10T05:12:39.087Z,-0.83
2023-03-10T05:15:06.991Z,-0.77
2023-03-10T05:17:34.465Z,-0.78
2023-03-10T05:20:04.193Z,-0.69
2023-03-10T05:22:32.136Z,-0.71
2023-03-10T05:24:59.484Z,-0.71
2023-03-10T05:27:27.207Z,-0.67
2023-03-10T05:29:54.875Z,-0.61
2023-03-10T05:32:26.008Z,-0.58
2023-03-10T05:34:53.570Z,-0.65
2023-03-10T05:37:21.393Z,-0.62
2023-03-10T05:39:48.881Z,-0.58
2023-03-10T05:42:20.754Z,-0.57
2023-03-10T05:44:48.231Z,-0.60
2023-03-10T05:47:19.168Z,-0.54
2023-03-10T05:49:47.769Z,-0.58
2023-03-10T05:52:15.817Z,-0.43
2023-03-10T05:54:45.029Z,-0.57
2023-03-10T05:57:14.536Z,-0.48
2023-03-10T05:59:42.346Z,-0.39
2023-03-10T06:02:10.481Z,-0.41
2023-03-10T06:04:38.016Z,-0.43
2023-03-10T06:07:06.990Z,-0.36
2023-03-10T06:09:34.195Z,-0.39
2023-03-10T06:12:01.715Z,-0.29
2023-03-10T06:14:29.312Z,-0.32
2023-03-10T06:16:57.128Z,-0.27
2023-03-10T06:19:25.079Z,-0.21
2023-03-10T06:21:52.775Z,-0.27
2023-03-10T06:24:20.261Z,-0.17
2023-03-10T06:26:47.698Z,-0.13
2023-03-10T06:29:14.868Z,-0.12
2023-03-10T06:31:42.507Z,-0.08
2023-03-10T06:34:09.717Z,-0.05
2023-03-10T06:36:40.344Z,0.06
2023-03-10T06:39:08.100Z,0.05
2023-03-10T06:41:36.558Z,0.04
2023-03-10T06:44:03.976Z,0.17
2023-03-10T06:46:31.674Z,0.17
2023-03-10T06:48:59.084Z,0.27
2023-03-10T06:51:26.746Z,0.29
2023-03-10T06:53:55.362Z,0.41
2023-03-10T06:56:23.276Z,0.49
2023-03-10T06:58:50.632Z,0.54
2023-03-10T07:01:27.765Z,0.58
2023-03-10T07:03:57.956Z,0.60
2023-03-10T07:06:26.188Z,0.59
2023-03-10T07:08:56.070Z,0.65
2023-03-10T07:11:26.909Z,0.72
2023-03-10T07:13:55.106Z,0.83
2023-03-10T07:16:23.561Z,0.91
2023-03-10T07:18:51.017Z,0.99
2023-03-10T07:21:20.857Z,0.97
2023-03-10T07:23:48.131Z,1.00
2023-03-10T07:26:18.790Z,1.05
2023-03-10T07:28:46.985Z,1.07
2023-03-10T07:31:15.543Z,1.12
2023-03-10T07:33:43.075Z,1.12
2023-03-10T07:36:16.001Z,1.25
2023-03-10T07:38:43.470Z,1.27
2023-03-10T07:41:19.288Z,1.28
2023-03-10T07:43:47.064Z,1.33
2023-03-10T07:46:15.565Z,1.43
2023-03-10T07:48:43.211Z,1.52
2023-03-10T07:51:10.827Z,1.55
2023-03-10T07:53:38.087Z,1.59
2023-03-10T07:56:10.553Z,1.59
2023-03-10T07:58:38.057Z,1.72
2023-03-10T08:01:07.069Z,1.86
2023-03-10T08:03:34.748Z,1.93
2023-03-10T08:06:03.857Z,2.02
2023-03-10T08:08:31.101Z,2.09
2023-03-10T08:11:07.485Z,2.23
2023-03-10T08:13:34.926Z,2.21
2023-03-10T08:16:03.175Z,2.29
2023-03-10T08:18:31.009Z,2.44
2023-03-10T08:20:59.162Z,2.44
2023-03-10T08:23:26.599Z,2.40
2023-03-10T08:25:54.034Z,2.46
2023-03-10T08:28:21.255Z,2.44
2023-03-10T08:31:03.124Z,2.39
2023-03-10T08:33:31.436Z,2.35
2023-03-10T08:36:04.097Z,2.41
2023-03-10T08:38:31.474Z,2.43
2023-03-10T08:40:59.307Z,2.37
2023-03-10T08:43:26.631Z,2.45
2023-03-10T08:45:54.072Z,2.48
2023-03-10T08:48:21.303Z,2.59
2023-03-10T08:50:48.700Z,2.53
2023-03-10T08:53:15.960Z,2.63
2023-03-10T08:55:43.426Z,2.65
2023-03-10T08:58:10.695Z,2.66
2023-03-10T09:00:38.256Z,2.72
2023-03-10T09:03:05.445Z,2.84
2023-03-10T09:05:32.937Z,2.83
2023-03-10T09:08:00.178Z,2.87
2023-03-10T09:10:27.807Z,2.87
2023-03-10T09:13:11.055Z,3.07
2023-03-10T09:15:41.669Z,3.09
2023-03-10T09:18:09.573Z,3.19
2023-03-10T09:20:38.696Z,3.31
2023-03-10T09:23:07.014Z,3.24
2023-03-10T09:25:34.736Z,3.28
2023-03-10T09:28:02.113Z,3.35
2023-03-10T09:30:29.810Z,3.39
2023-03-10T09:32:57.331Z,3.57
2023-03-10T09:35:25.269Z,3.71
2023-03-10T09:37:52.502Z,3.90
2023-03-10T09:40:21.031Z,4.08
2023-03-10T09:42:51.963Z,4.07
2023-03-10T09:45:34.646Z,4.18
2023-03-10T09:48:26.993Z,4.28
2023-03-10T09:50:59.398Z,4.42
2023-03-10T09:53:51.672Z,4.54
2023-03-10T09:56:22.603Z,4.52
2023-03-10T09:59:17.237Z,4.64
2023-03-10T10:01:48.252Z,4.65
2023-03-10T10:04:18.849Z,4.66
2023-03-10T10:06:48.210Z,4.75
2023-03-10T10:09:42.336Z,4.79
2023-03-10T10:12:18.123Z,4.93
2023-03-10T10:14:56.787Z,4.89
2023-03-10T10:17:56.738Z,5.03
2023-03-10T10:20:42.933Z,4.99
2023-03-10T10:23:52.718Z,5.15
2023-03-10T10:26:22.246Z,5.26
2023-03-10T10:28:58.814Z,5.29
2023-03-10T10:31:31.280Z,5.47
2023-03-10T10:34:03.967Z,5.63
2023-03-10T10:36:35.491Z,5.72
2023-03-10T10:39:06.160Z,5.79
2023-03-10T10:41:34.895Z,5.88
2023-03-10T10:44:13.199Z,6.09
2023-03-10T10:46:51.989Z,6.19
2023-03-10T10:49:23.876Z,6.30
2023-03-10T10:52:06.452Z,6.40
2023-03-10T10:54:42.290Z,6.48
2023-03-10T10:57:28.106Z,6.57
2023-03-10T10:59:55.850Z,6.69
2023-03-10T11:02:31.303Z,6.73
2023-03-10T11:05:21.457Z,6.84
2023-03-10T11:07:50.669Z,6.93
2023-03-10T11:10:20.753Z,6.97
2023-03-10T11:13:10.487Z,7.03
2023-03-10T11:15:50.133Z,7.04
2023-03-10T11:18:27.959Z,7.07
2023-03-10T11:21:08.535Z,7.08
2023-03-10T11:23:46.686Z,7.10
2023-03-10T11:26:35.574Z,7.19
2023-03-10T11:29:49.783Z,7.29
2023-03-10T11:32:21.986Z,7.37
2023-03-10T11:34:51.965Z,7.38
2023-03-10T11:37:26.268Z,7.47
2023-03-10T11:40:20.014Z,7.48
2023-03-10T11:42:55.376Z,7.58
2023-03-10T11:45:54.853Z,7.63
2023-03-10T11:48:47.421Z,7.73
2023-03-10T11:52:11.580Z,7.87
2023-03-10T11:55:12.367Z,8.03
2023-03-10T11:57:46.499Z,8.01
2023-03-10T12:00:41.093Z,8.19
2023-03-10T12:03:40.200Z,8.17
2023-03-10T12:06:13.208Z,8.28
2023-03-10T12:08:40.816Z,8.39
2023-03-10T12:11:14.733Z,8.60
2023-03-10T12:13:47.475Z,8.85
2023-03-10T12:16:28.509Z,8.94
2023-03-10T12:18:56.091Z,9.07
2023-03-10T12:21:31.440Z,9.13
2023-03-10T12:24:00.768Z,9.06
2023-03-10T12:26:49.965Z,9.17
2023-03-10T12:29:30.027Z,9.23
2023-03-10T12:32:01.172Z,9.26
2023-03-10T12:34:31.903Z,9.27
2023-03-10T12:37:05.879Z,9.34
2023-03-10T12:39:43.226Z,9.37
2023-03-10T12:42:37.088Z,9.44
2023-03-10T12:45:29.397Z,9.46
2023-03-10T12:48:03.237Z,9.48
2023-03-10T12:50:36.621Z,9.53
2023-03-10T12:53:19.443Z,9.63
2023-03-10T12:56:14.832Z,9.72
2023-03-10T12:59:01.845Z,9.96
2023-03-10T13:01:38.455Z,10.04
2023-03-10T13:04:07.209Z,10.10
2023-03-10T13:06:38.094Z,10.28
2023-03-10T13:09:29.665Z,10.28
2023-03-10T13:12:04.481Z,10.44
2023-03-10T13:14:45.177Z,10.58
2023-03-10T13:17:27.397Z,10.73
2023-03-10T13:20:01.221Z,10.84
2023-03-10T13:22:28.974Z,10.92
2023-03-10T13:24:59.103Z,10.99
2023-03-10T13:27:34.401Z,11.05
2023-03-10T13:30:06.068Z,11.14
2023-03-10T13:32:33.916Z,11.22
2023-03-10T13:35:33.927Z,11.27
2023-03-10T13:38:10.298Z,11.30
2023-03-10T13:40:41.455Z,11.36
2023-03-10T13:43:25.815Z,11.42
2023-03-10T13:46:01.223Z,11.39
2023-03-10T13:48:34.306Z,11.44
2023-03-10T13:51:08.935Z,11.46
2023-03-10T13:53:39.374Z,11.44
2023-03-10T13:56:45.475Z,11.43
2023-03-10T13:59:29.543Z,11.42
2023-03-10T14:02:02.311Z,11.39
2023-03-10T14:04:47.239Z,11.34
2023-03-10T14:07:23.790Z,11.32
2023-03-10T14:10:23.275Z,11.29
2023-03-10T14:12:56.235Z,11.29
2023-03-10T14:15:27.955Z,11.26
2023-03-10T14:18:14.557Z,11.31
2023-03-10T14:20:45.952Z,11.32
2023-03-10T14:23:19.532Z,11.29
2023-03-10T14:25:47.833Z,11.26
2023-03-10T14:28:35.987Z,11.28
2023-03-10T14:31:04.877Z,11.23
2023-03-10T14:33:33.239Z,11.22
2023-03-10T14:36:00.747Z,11.25
2023-03-10T14:38:28.790Z,11.26
2023-03-10T14:40:56.302Z,11.28
2023-03-10T14:43:27.906Z,11.25
2023-03-10T14:45:56.981Z,11.28
2023-03-10T14:48:27.196Z,11.27
2023-03-10T14:50:56.918Z,11.32
2023-03-10T14:53:26.430Z,11.30
2023-03-10T14:55:56.115Z,11.28
2023-03-10T14:58:32.101Z,11.28
2023-03-10T15:01:00.416Z,11.22
2023-03-10T15:03:28.751Z,11.25
2023-03-10T15:05:56.433Z,11.26
2023-03-10T15:08:24.970Z,11.35
2023-03-10T15:10:52.559Z,11.20
2023-03-10T15:13:23.831Z,11.25
2023-03-10T15:15:51.620Z,11.22
2023-03-10T15:18:21.939Z,11.22
2023-03-10T15:20:49.753Z,11.21
2023-03-10T15:23:22.576Z,11.17
2023-03-10T15:25:50.180Z,11.10
2023-03-10T15:28:18.312Z,11.14
2023-03-10T15:30:45.961Z,11.12
2023-03-10T15:33:13.886Z,11.16
2023-03-10T15:35:42.331Z,11.12
2023-03-10T15:38:13.502Z,11.10
2023-03-10T15:40:41.203Z,11.07
2023-03-10T15:43:09.171Z,11.06
2023-03-10T15:45:42.674Z,11.03
2023-03-10T15:48:11.045Z,10.99
2023-03-10T15:50:42.462Z,10.97
2023-03-10T15:53:09.951Z,10.91
2023-03-10T15:55:41.508Z,10.88
2023-03-10T15:58:10.939Z,10.80
2023-03-10T16:00:38.659Z,10.73
2023-03-10T16:03:06.410Z,10.74
2023-03-10T16:05:34.968Z,10.67
2023-03-10T16:08:06.515Z,10.65
2023-03-10T16:10:35.170Z,10.67
2023-03-10T16:13:03.232Z,10.64
2023-03-10T16:15:30.698Z,10.44
2023-03-10T16:17:58.441Z,10.45
2023-03-10T16:20:25.898Z,10.49
2023-03-10T16:22:54.924Z,10.45
2023-03-10T16:25:23.071Z,10.39
2023-03-10T16:27:50.914Z,10.30
2023-03-10T16:30:18.984Z,10.28
2023-03-10T16:32:48.759Z,10.20
2023-03-10T16:35:16.982Z,10.19
2023-03-10T16:37:44.747Z,10.13
2023-03-10T16:40:12.680Z,10.11
2023-03-10T16:42:43.436Z,10.01
2023-03-10T16:45:11.330Z,10.01
2023-03-10T16:47:38.987Z,9.94
2023-03-10T16:50:06.602Z,9.82
2023-03-10T16:52:39.592Z,9.84
2023-03-10T16:55:09.399Z,9.77
2023-03-10T16:57:37.067Z,9.79
2023-03-10T17:00:05.790Z,9.84
2023-03-10T17:02:33.299Z,9.80
2023-03-10T17:05:00.818Z,9.79
2023-03-10T17:07:28.557Z,9.74
2023-03-10T17:09:56.029Z,9.65
2023-03-10T17:12:24.460Z,9.60
2023-03-10T17:14:51.910Z,9.62
2023-03-10T17:17:19.478Z,9.54
2023-03-10T17:19:50.828Z,9.39
2023-03-10T17:22:18.502Z,9.36
2023-03-10T17:24:45.838Z,9.25
2023-03-10T17:27:13.440Z,9.12
2023-03-10T17:29:40.673Z,9.06
2023-03-10T17:32:08.297Z,8.94
2023-03-10T17:34:35.793Z,8.90
2023-03-10T17:37:03.619Z,8.88
2023-03-10T17:39:30.962Z,8.79
2023-03-10T17:41:58.647Z,8.72
2023-03-10T17:44:26.481Z,8.63
2023-03-10T17:46:56.119Z,8.53
2023-03-10T17:49:23.500Z,8.45
2023-03-10T17:51:51.442Z,8.35
2023-03-10T17:54:20.722Z,8.25
2023-03-10T17:56:49.528Z,8.14
2023-03-10T17:59:17.336Z,8.04
2023-03-10T18:01:46.206Z,7.94
2023-03-10T18:04:13.700Z,7.83
2023-03-10T18:06:41.453Z,7.78
2023-03-10T18:09:12.524Z,7.70
2023-03-10T18:11:40.681Z,7.60
2023-03-10T18:14:08.068Z,7.52
2023-03-10T18:16:38.935Z,7.41
2023-03-10T18:19:10.514Z,7.28
2023-03-10T18:21:39.114Z,7.18
2023-03-10T18:24:08.631Z,7.08
2023-03-10T18:26:36.885Z,6.97
2023-03-10T18:29:04.697Z,6.89
2023-03-10T18:31:33.313Z,6.77
2023-03-10T18:34:01.234Z,6.67
2023-03-10T18:36:29.641Z,6.54
2023-03-10T18:38:57.668Z,6.44
2023-03-10T18:41:27.805Z,6.28
2023-03-10T18:43:55.303Z,6.23
2023-03-10T18:46:22.957Z,6.32
2023-03-10T18:48:55.723Z,6.48
2023-03-10T18:51:24.376Z,6.53
2023-03-10T18:53:52.085Z,6.40
2023-03-10T18:56:19.734Z,6.28
2023-03-10T18:58:47.105Z,6.20
2023-03-10T19:01:15.725Z,6.04
2023-03-10T19:03:43.156Z,5.87
2023-03-10T19:06:11.024Z,5.82
2023-03-10T19:08:39.132Z,5.65
2023-03-10T19:11:07.272Z,5.62
2023-03-10T19:13:35.423Z,5.50
2023-03-10T19:16:07.768Z,5.45
2023-03-10T19:18:36.001Z,5.39
2023-03-10T19:21:04.204Z,5.32
2023-03-10T19:23:34.387Z,5.30
2023-03-10T19:26:03.678Z,5.26
2023-03-10T19:28:32.168Z,5.35
2023-03-10T19:31:00.468Z,5.62
2023-03-10T19:33:28.690Z,5.93
2023-03-10T19:36:05.493Z,6.47
2023-03-10T19:38:38.320Z,6.63
2023-03-10T19:41:12.527Z,6.67
2023-03-10T19:43:40.490Z,6.64
2023-03-10T19:46:12.033Z,6.61
2023-03-10T19:48:41.508Z,6.56
2023-03-10T19:51:10.085Z,6.52
2023-03-10T19:53:37.955Z,6.49
2023-03-10T19:56:07.951Z,6.55
2023-03-10T19:58:36.335Z,6.50
2023-03-10T20:01:05.023Z,6.41
2023-03-10T20:03:34.809Z,6.33
2023-03-10T20:06:05.319Z,6.24
2023-03-10T20:08:34.669Z,6.16
2023-03-10T20:11:03.507Z,6.12
2023-03-10T20:13:33.013Z,6.16
2023-03-10T20:16:01.412Z,6.12
2023-03-10T20:18:30.534Z,6.19
2023-03-10T20:21:02.442Z,6.07
2023-03-10T20:23:30.180Z,5.94
2023-03-10T20:26:07.481Z,5.84
2023-03-10T20:28:36.202Z,5.84
2023-03-10T20:31:04.807Z,5.81
2023-03-10T20:33:32.701Z,5.75
2023-03-10T20:36:01.703Z,5.84
2023-03-10T20:38:29.774Z,5.96
2023-03-10T20:40:57.835Z,6.00
2023-03-10T20:43:25.761Z,6.15
2023-03-10T20:45:54.482Z,6.18
2023-03-10T20:48:22.854Z,6.26
2023-03-10T20:50:55.654Z,6.38
2023-03-10T20:53:26.723Z,6.42
2023-03-10T20:55:55.121Z,6.52
2023-03-10T20:58:22.879Z,6.64
2023-03-10T21:00:51.767Z,6.83
2023-03-10T21:03:21.861Z,6.85
2023-03-10T21:05:50.676Z,6.84
2023-03-10T21:08:18.547Z,7.06
2023-03-10T21:10:49.326Z,7.37
2023-03-10T21:13:17.784Z,7.48
2023-03-10T21:15:46.412Z,7.50
2023-03-10T21:18:14.456Z,7.50
2023-03-10T21:20:43.265Z,7.47
2023-03-10T21:23:11.206Z,7.38
2023-03-10T21:25:40.751Z,7.37
2023-03-10T21:28:09.001Z,7.32
2023-03-10T21:30:37.552Z,7.29
2023-03-10T21:33:06.051Z,7.34
2023-03-10T21:35:38.787Z,7.18
2023-03-10T21:38:07.264Z,7.25
2023-03-10T21:40:36.126Z,7.20
2023-03-10T21:43:04.918Z,7.00
2023-03-10T21:45:37.454Z,7.22
2023-03-10T21:48:06.659Z,6.97
2023-03-10T21:50:44.586Z,7.22
2023-03-10T21:53:16.448Z,6.96
2023-03-10T21:55:45.951Z,6.94
2023-03-10T21:58:22.577Z,7.19
2023-03-10T22:00:56.156Z,7.23
2023-03-10T22:03:24.869Z,7.25
2023-03-10T22:05:53.448Z,7.31
2023-03-10T22:08:22.680Z,7.31
2023-03-10T22:10:51.422Z,7.25
2023-03-10T22:13:19.465Z,7.31
2023-03-10T22:15:47.770Z,7.25
2023-03-10T22:18:16.550Z,7.29
2023-03-10T22:20:44.898Z,7.34
2023-03-10T22:23:13.189Z,7.15
2023-03-10T22:25:48.801Z,7.16
2023-03-10T22:28:17.359Z,7.27
2023-03-10T22:30:47.516Z,7.27
2023-03-10T22:33:19.822Z,7.33
2023-03-10T22:35:52.576Z,7.26
2023-03-10T22:38:22.036Z,7.24
2023-03-10T22:40:55.260Z,7.31
2023-03-10T22:43:23.532Z,7.28
2023-03-10T22:45:52.299Z,7.24
2023-03-10T22:48:20.840Z,7.28
2023-03-10T22:50:48.846Z,7.23
2023-03-10T22:53:18.492Z,7.20
2023-03-10T22:55:48.965Z,7.27
2023-03-10T22:58:17.518Z,7.21
2023-03-10T23:00:46.574Z,7.14
2023-03-10T23:03:15.709Z,7.31
2023-03-10T23:05:45.632Z,7.27
2023-03-10T23:08:13.680Z,7.31
2023-03-10T23:10:42.097Z,7.27
2023-03-10T23:13:14.666Z,7.36
2023-03-10T23:15:44.278Z,7.40
2023-03-10T23:18:12.078Z,7.52
2023-03-10T23:20:42.868Z,7.55
2023-03-10T23:23:12.941Z,7.57
2023-03-10T23:25:43.921Z,7.61
2023-03-10T23:28:11.842Z,7.64
2023-03-10T23:30:41.942Z,7.60
2023-03-10T23:33:13.408Z,7.66
2023-03-10T23:35:41.978Z,7.59
2023-03-10T23:38:10.596Z,7.64
2023-03-10T23:40:38.535Z,7.58
2023-03-10T23:43:07.147Z,7.56
2023-03-10T23:45:37.013Z,7.58
2023-03-10T23:48:07.537Z,7.59
2023-03-10T23:50:38.355Z,7.55
2023-03-10T23:53:07.857Z,7.51
2023-03-10T23:55:38.750Z,7.43
2023-03-10T23:58:07.211Z,7.42
